createdAt,value
2022-10-25T00:02:00.938Z,86.50
2022-10-25T00:04:04.037Z,85.99
2022-10-25T00:06:12.357Z,86.06
2022-10-25T00:08:15.081Z,86.06
2022-10-25T00:10:20.118Z,86.04
2022-10-25T00:12:44.787Z,86.05
2022-10-25T00:15:06.321Z,84.81
2022-10-25T00:17:09.503Z,84.65
2022-10-25T00:19:30.738Z,84.39
2022-10-25T00:21:33.474Z,84.65
2022-10-25T00:23:54.448Z,84.57
2022-10-25T00:26:44.651Z,83.26
2022-10-25T00:28:47.477Z,83.69
2022-10-25T00:31:17.296Z,83.21
2022-10-25T00:33:19.921Z,83.20
2022-10-25T00:35:40.715Z,83.35
2022-10-25T00:38:01.565Z,83.33
2022-10-25T00:40:41.246Z,83.00
2022-10-25T00:43:20.657Z,83.92
2022-10-25T00:45:25.988Z,83.65
2022-10-25T00:48:06.104Z,83.61
2022-10-25T00:50:52.236Z,83.42
2022-10-25T00:53:51.322Z,83.46
2022-10-25T00:56:40.705Z,83.95
2022-10-25T00:59:20.880Z,85.04
2022-10-25T01:02:01.953Z,85.82
2022-10-25T01:04:43.766Z,85.40
2022-10-25T01:07:24.137Z,85.80
2022-10-25T01:09:30.591Z,86.29
2022-10-25T01:12:10.388Z,87.58
2022-10-25T01:15:08.917Z,87.70
2022-10-25T01:17:33.265Z,87.48
2022-10-25T01:20:17.191Z,88.40
2022-10-25T01:23:15.680Z,88.25
2022-10-25T01:25:57.759Z,87.89
2022-10-25T01:28:37.726Z,86.97
2022-10-25T01:31:07.993Z,85.82
2022-10-25T01:33:35.260Z,85.87
2022-10-25T01:36:21.024Z,86.35
2022-10-25T01:39:10.600Z,86.89
2022-10-25T01:41:54.891Z,87.53
2022-10-25T01:44:16.214Z,87.24
2022-10-25T01:46:37.299Z,87.36
2022-10-25T01:49:24.634Z,87.20
2022-10-25T01:52:04.344Z,88.19
2022-10-25T01:54:26.851Z,88.37
2022-10-25T01:57:20.889Z,88.37
2022-10-25T01:59:51.601Z,88.33
2022-10-25T02:02:36.307Z,88.21
2022-10-25T02:04:59.722Z,87.83
2022-10-25T02:07:29.551Z,88.18
2022-10-25T02:10:19.994Z,88.96
2022-10-25T02:12:30.398Z,89.52
2022-10-25T02:15:10.332Z,89.14
2022-10-25T02:17:51.640Z,89.20
2022-10-25T02:20:33.992Z,89.14
2022-10-25T02:23:15.835Z,89.48
2022-10-25T02:25:55.809Z,89.11
2022-10-25T02:28:36.349Z,89.19
2022-10-25T02:31:16.341Z,89.28
2022-10-25T02:34:14.868Z,88.77
2022-10-25T02:36:57.629Z,89.18
2022-10-25T02:39:37.588Z,89.05
2022-10-25T02:41:58.721Z,89.29
2022-10-25T02:44:01.278Z,89.28
2022-10-25T02:47:00.032Z,88.72
2022-10-25T02:49:40.005Z,89.20
2022-10-25T02:52:19.839Z,88.86
2022-10-25T02:54:40.682Z,88.78
2022-10-25T02:57:20.663Z,88.03
2022-10-25T02:59:41.886Z,88.68
2022-10-25T03:02:21.710Z,88.81
2022-10-25T03:04:24.450Z,88.56
2022-10-25T03:06:27.009Z,88.21
2022-10-25T03:08:48.102Z,88.36
2022-10-25T03:10:51.513Z,88.70
2022-10-25T03:13:12.687Z,88.86
2022-10-25T03:15:15.248Z,88.52
2022-10-25T03:17:17.901Z,88.59
2022-10-25T03:19:20.447Z,88.61
2022-10-25T03:21:22.963Z,88.26
2022-10-25T03:24:02.854Z,88.46
2022-10-25T03:26:23.882Z,89.06
2022-10-25T03:28:45.182Z,88.78
2022-10-25T03:31:29.888Z,88.85
2022-10-25T03:33:51.465Z,89.40
2022-10-25T03:35:55.159Z,88.99
2022-10-25T03:38:34.960Z,89.33
2022-10-25T03:40:55.926Z,87.43
2022-10-25T03:43:35.415Z,87.03
2022-10-25T03:46:15.396Z,86.51
2022-10-25T03:48:27.197Z,86.90
2022-10-25T03:50:29.722Z,87.49
2022-10-25T03:52:32.415Z,86.96
2022-10-25T03:54:35.491Z,87.08
2022-10-25T03:56:38.028Z,86.99
2022-10-25T03:58:40.663Z,87.26
2022-10-25T04:00:43.272Z,87.18
2022-10-25T04:02:46.012Z,87.11
2022-10-25T04:04:48.762Z,87.51
2022-10-25T04:06:51.330Z,87.96
2022-10-25T04:08:53.867Z,87.29
2022-10-25T04:10:56.460Z,86.70
2022-10-25T04:12:59.206Z,86.40
2022-10-25T04:15:01.875Z,86.45
2022-10-25T04:17:06.219Z,86.08
2022-10-25T04:19:08.719Z,86.35
2022-10-25T04:21:11.334Z,86.19
2022-10-25T04:23:13.902Z,86.59
2022-10-25T04:25:16.545Z,87.07
2022-10-25T04:27:19.148Z,86.91
2022-10-25T04:29:21.854Z,86.68
2022-10-25T04:31:24.734Z,87.49
2022-10-25T04:33:27.286Z,87.03
2022-10-25T04:35:29.892Z,87.01
2022-10-25T04:37:32.561Z,86.83
2022-10-25T04:39:35.073Z,86.57
2022-10-25T04:41:37.635Z,86.91
2022-10-25T04:43:40.269Z,86.90
2022-10-25T04:45:42.830Z,87.22
2022-10-25T04:47:45.455Z,87.60
2022-10-25T04:49:48.108Z,87.79
2022-10-25T04:53:55.386Z,89.50
2022-10-25T04:56:03.227Z,90.62
2022-10-25T04:58:05.995Z,90.89
2022-10-25T05:00:09.338Z,90.74
2022-10-25T05:02:12.628Z,90.13
2022-10-25T05:04:15.179Z,90.10
2022-10-25T05:06:25.533Z,90.39
2022-10-25T05:08:28.275Z,90.36
2022-10-25T05:10:30.831Z,90.25
2022-10-25T05:12:33.389Z,90.31
2022-10-25T05:14:36.069Z,90.48
2022-10-25T05:16:39.474Z,90.50
2022-10-25T05:18:42.995Z,90.06
2022-10-25T05:20:52.342Z,90.09
2022-10-25T05:22:55.251Z,90.02
2022-10-25T05:24:57.838Z,90.50
2022-10-25T05:27:00.426Z,90.63
2022-10-25T05:29:05.530Z,90.44
2022-10-25T05:31:15.377Z,90.30
2022-10-25T05:33:17.959Z,90.16
2022-10-25T05:35:20.586Z,90.11
2022-10-25T05:37:23.267Z,89.77
2022-10-25T05:39:26.099Z,89.96
2022-10-25T05:41:30.807Z,89.63
2022-10-25T05:43:36.095Z,90.06
2022-10-25T05:45:38.656Z,89.55
2022-10-25T05:47:41.292Z,89.69
2022-10-25T05:49:43.854Z,89.37
2022-10-25T05:51:46.468Z,89.62
2022-10-25T05:53:51.553Z,89.19
2022-10-25T05:55:54.107Z,89.06
2022-10-25T05:57:56.753Z,88.85
2022-10-25T05:59:59.270Z,89.18
2022-10-25T06:02:02.143Z,88.70
2022-10-25T06:04:05.078Z,88.63
2022-10-25T06:06:10.236Z,89.14
2022-10-25T06:08:12.823Z,89.13
2022-10-25T06:10:15.503Z,89.33
2022-10-25T06:12:18.098Z,89.46
2022-10-25T06:14:20.629Z,89.60
2022-10-25T06:16:24.263Z,89.03
2022-10-25T06:18:27.335Z,88.92
2022-10-25T06:20:30.118Z,89.22
2022-10-25T06:22:32.875Z,89.35
2022-10-25T06:24:35.462Z,89.33
2022-10-25T06:26:39.096Z,89.74
2022-10-25T06:28:41.981Z,90.08
2022-10-25T06:30:44.549Z,90.33
2022-10-25T06:32:47.389Z,90.22
2022-10-25T06:35:08.389Z,90.20
2022-10-25T06:37:11.029Z,90.44
2022-10-25T06:39:14.787Z,90.19
2022-10-25T06:41:20.337Z,90.47
2022-10-25T06:43:22.931Z,90.30
2022-10-25T06:45:25.619Z,90.97
2022-10-25T06:47:28.249Z,90.62
2022-10-25T06:49:30.952Z,90.42
2022-10-25T06:52:11.791Z,89.93
2022-10-25T06:54:32.654Z,90.20
2022-10-25T06:56:36.342Z,90.05
2022-10-25T06:58:57.920Z,90.20
2022-10-25T07:01:14.665Z,90.46
2022-10-25T07:03:17.439Z,90.80
2022-10-25T07:05:20.015Z,90.18
2022-10-25T07:07:41.325Z,90.19
2022-10-25T07:09:44.007Z,89.95
2022-10-25T07:11:46.665Z,89.64
2022-10-25T07:14:08.853Z,89.78
2022-10-25T07:16:12.979Z,89.29
2022-10-25T07:18:15.787Z,89.84
2022-10-25T07:20:37.253Z,89.97
2022-10-25T07:22:39.845Z,89.87
2022-10-25T07:25:01.070Z,89.99
2022-10-25T07:27:03.888Z,89.16
2022-10-25T07:29:06.631Z,89.00
2022-10-25T07:31:46.603Z,89.12
2022-10-25T07:33:50.910Z,89.28
2022-10-25T07:36:12.352Z,89.42
2022-10-25T07:38:15.621Z,89.29
2022-10-25T07:40:36.694Z,88.78
2022-10-25T07:42:58.010Z,88.30
2022-10-25T07:45:22.283Z,87.40
2022-10-25T07:47:27.009Z,86.96
2022-10-25T07:49:29.697Z,86.48
2022-10-25T07:51:50.969Z,86.41
2022-10-25T07:53:53.927Z,86.05
2022-10-25T07:55:56.586Z,86.92
2022-10-25T07:58:17.845Z,87.42
2022-10-25T08:00:20.442Z,88.01
2022-10-25T08:02:41.732Z,88.17
2022-10-25T08:04:44.892Z,88.49
2022-10-25T08:06:47.467Z,88.16
2022-10-25T08:08:50.249Z,88.60
2022-10-25T08:11:11.567Z,88.66
2022-10-25T08:13:14.182Z,88.77
2022-10-25T08:15:17.889Z,89.03
2022-10-25T08:17:20.592Z,88.81
2022-10-25T08:19:23.196Z,89.20
2022-10-25T08:21:44.213Z,89.59
2022-10-25T08:23:46.870Z,89.78
2022-10-25T08:25:49.602Z,90.04
2022-10-25T08:27:52.356Z,89.95
2022-10-25T08:30:13.510Z,89.87
2022-10-25T08:32:53.737Z,90.03
2022-10-25T08:35:15.653Z,89.63
2022-10-25T08:37:36.639Z,90.20
2022-10-25T08:39:40.133Z,90.64
2022-10-25T08:41:56.101Z,90.87
2022-10-25T08:44:26.160Z,90.84
2022-10-25T08:46:54.601Z,91.57
2022-10-25T08:49:16.497Z,91.51
2022-10-25T08:51:43.486Z,91.59
2022-10-25T08:54:25.123Z,91.67
2022-10-25T08:57:23.703Z,91.55
2022-10-25T08:59:47.399Z,91.37
2022-10-25T09:01:56.365Z,89.83
2022-10-25T09:04:00.279Z,89.15
2022-10-25T09:06:47.861Z,87.79
2022-10-25T09:09:04.287Z,86.70
2022-10-25T09:11:21.848Z,86.10
2022-10-25T09:13:50.052Z,85.03
2022-10-25T09:16:01.614Z,84.71
2022-10-25T09:18:14.878Z,83.70
2022-10-25T09:20:20.795Z,82.98
2022-10-25T09:22:29.646Z,82.17
2022-10-25T09:24:48.005Z,83.19
2022-10-25T09:27:05.160Z,83.52
2022-10-25T09:29:24.749Z,83.74
2022-10-25T09:31:28.175Z,83.36
2022-10-25T09:33:33.191Z,83.04
2022-10-25T09:35:44.314Z,83.20
2022-10-25T09:37:53.550Z,83.66
2022-10-25T09:40:01.424Z,83.99
2022-10-25T09:42:25.886Z,83.78
2022-10-25T09:44:40.672Z,84.51
2022-10-25T09:46:51.417Z,85.13
2022-10-25T09:49:03.599Z,85.47
2022-10-25T09:51:15.023Z,83.60
2022-10-25T09:53:21.821Z,83.53
2022-10-25T09:55:37.218Z,83.61
2022-10-25T09:57:40.015Z,83.66
2022-10-25T09:59:46.667Z,84.14
2022-10-25T10:01:49.646Z,84.36
2022-10-25T10:03:55.791Z,83.87
2022-10-25T10:06:08.732Z,83.59
2022-10-25T10:08:11.447Z,84.49
2022-10-25T10:10:21.141Z,84.68
2022-10-25T10:12:31.126Z,84.10
2022-10-25T10:15:12.684Z,84.46
2022-10-25T10:17:18.648Z,84.70
2022-10-25T10:19:42.281Z,84.38
2022-10-25T10:21:51.141Z,84.32
2022-10-25T10:24:06.066Z,83.07
2022-10-25T10:26:14.334Z,82.17
2022-10-25T10:28:17.678Z,82.43
2022-10-25T10:30:29.435Z,82.01
2022-10-25T10:32:35.304Z,82.01
2022-10-25T10:34:51.261Z,82.78
2022-10-25T10:37:27.975Z,82.82
2022-10-25T10:39:49.785Z,81.78
2022-10-25T10:42:05.042Z,80.93
2022-10-25T10:44:13.228Z,80.71
2022-10-25T10:46:18.200Z,79.72
2022-10-25T10:48:24.277Z,79.90
2022-10-25T10:50:32.038Z,80.30
2022-10-25T10:52:42.636Z,80.86
2022-10-25T10:54:48.279Z,81.61
2022-10-25T10:57:02.628Z,82.01
2022-10-25T10:59:05.521Z,82.24
2022-10-25T11:01:33.540Z,81.99
2022-10-25T11:03:49.079Z,82.39
2022-10-25T11:06:02.965Z,82.29
2022-10-25T11:08:08.296Z,82.19
2022-10-25T11:10:16.753Z,81.86
2022-10-25T11:12:19.525Z,82.03
2022-10-25T11:14:22.459Z,82.04
2022-10-25T11:16:59.210Z,82.23
2022-10-25T11:19:26.368Z,82.40
2022-10-25T11:21:50.258Z,82.20
2022-10-25T11:24:15.069Z,81.93
2022-10-25T11:26:45.117Z,81.90
2022-10-25T11:29:37.180Z,81.36
2022-10-25T11:32:29.046Z,81.07
2022-10-25T11:35:00.827Z,81.22
2022-10-25T11:37:15.167Z,81.03
2022-10-25T11:39:27.688Z,80.93
2022-10-25T11:41:53.644Z,80.71
2022-10-25T11:44:05.371Z,80.13
2022-10-25T11:46:42.526Z,80.79
2022-10-25T11:49:10.077Z,80.50
2022-10-25T11:51:21.412Z,80.21
2022-10-25T11:53:35.880Z,80.17
2022-10-25T11:55:56.374Z,79.68
2022-10-25T11:58:08.265Z,79.31
2022-10-25T12:00:22.915Z,79.36
2022-10-25T12:02:56.580Z,79.30
2022-10-25T12:05:22.868Z,79.28
2022-10-25T12:07:40.257Z,79.80
2022-10-25T12:09:58.150Z,80.35
2022-10-25T12:12:08.651Z,81.08
2022-10-25T12:14:16.699Z,81.37
2022-10-25T12:16:21.587Z,81.42
2022-10-25T12:18:30.037Z,81.90
2022-10-25T12:22:46.330Z,82.50
2022-10-25T12:25:01.401Z,82.75
2022-10-25T12:27:05.807Z,82.68
2022-10-25T12:29:34.818Z,83.19
2022-10-25T12:31:43.194Z,83.44
2022-10-25T12:33:55.755Z,83.66
2022-10-25T12:36:04.059Z,83.93
2022-10-25T12:38:13.136Z,84.30
2022-10-25T12:40:22.528Z,84.43
2022-10-25T12:42:43.651Z,84.40
2022-10-25T12:45:14.424Z,84.52
2022-10-25T12:47:33.304Z,83.96
2022-10-25T12:50:08.296Z,83.84
2022-10-25T12:52:35.086Z,83.52
2022-10-25T12:55:25.968Z,83.80
2022-10-25T12:57:34.528Z,83.59
2022-10-25T13:00:10.042Z,83.94
2022-10-25T13:02:46.163Z,84.12
2022-10-25T13:05:07.066Z,83.76
2022-10-25T13:07:11.707Z,84.45
2022-10-25T13:09:16.794Z,84.23
2022-10-25T13:11:19.565Z,84.45
2022-10-25T13:13:33.880Z,85.02
2022-10-25T13:15:59.210Z,85.23
2022-10-25T13:18:05.966Z,85.92
2022-10-25T13:20:20.734Z,86.20
2022-10-25T13:22:46.656Z,86.79
2022-10-25T13:24:49.211Z,86.93
2022-10-25T13:27:16.277Z,88.27
2022-10-25T13:30:02.678Z,88.65
2022-10-25T13:32:17.890Z,89.58
2022-10-25T13:34:28.634Z,89.58
2022-10-25T13:36:51.814Z,90.39
2022-10-25T13:39:05.508Z,90.74
2022-10-25T13:41:18.774Z,92.11
2022-10-25T13:43:22.061Z,92.41
2022-10-25T13:45:40.582Z,92.43
2022-10-25T13:47:47.330Z,92.56
2022-10-25T13:49:49.974Z,93.15
2022-10-25T13:51:56.471Z,92.84
2022-10-25T13:54:06.112Z,93.21
2022-10-25T13:56:32.455Z,93.19
2022-10-25T13:58:40.910Z,93.51
2022-10-25T14:00:48.128Z,93.56
2022-10-25T14:03:08.668Z,93.84
2022-10-25T14:05:11.941Z,93.96
2022-10-25T14:07:46.112Z,94.41
2022-10-25T14:09:53.514Z,94.63
2022-10-25T14:12:08.980Z,94.69
2022-10-25T14:14:32.158Z,94.68
2022-10-25T14:16:40.498Z,94.70
2022-10-25T14:18:43.829Z,94.91
2022-10-25T14:20:49.533Z,94.64
2022-10-25T14:22:55.620Z,94.90
2022-10-25T14:25:00.937Z,94.47
2022-10-25T14:27:03.567Z,94.71
2022-10-25T14:29:14.632Z,94.87
2022-10-25T14:31:21.855Z,94.92
2022-10-25T14:33:36.758Z,95.02
2022-10-25T14:35:53.788Z,94.92
2022-10-25T14:37:56.388Z,94.80
2022-10-25T14:39:59.026Z,94.72
2022-10-25T14:42:03.127Z,94.98
2022-10-25T14:44:21.737Z,95.23
2022-10-25T14:46:26.850Z,95.34
2022-10-25T14:48:32.610Z,95.68
2022-10-25T14:50:35.616Z,95.42
2022-10-25T14:52:38.309Z,95.44
2022-10-25T14:54:42.145Z,96.00
2022-10-25T14:56:51.163Z,96.24
2022-10-25T14:58:55.275Z,96.07
2022-10-25T15:01:01.924Z,96.44
2022-10-25T15:03:06.379Z,96.44
2022-10-25T15:05:18.673Z,96.13
2022-10-25T15:07:30.632Z,96.39
2022-10-25T15:09:49.046Z,96.74
2022-10-25T15:12:11.757Z,96.44
2022-10-25T15:14:22.117Z,96.67
2022-10-25T15:16:36.767Z,96.80
2022-10-25T15:18:39.352Z,97.10
2022-10-25T15:20:41.919Z,96.95
2022-10-25T15:22:49.916Z,96.82
2022-10-25T15:24:52.826Z,95.74
2022-10-25T15:27:01.101Z,95.60
2022-10-25T15:29:03.744Z,95.75
2022-10-25T15:31:07.505Z,94.93
2022-10-25T15:33:13.990Z,94.72
2022-10-25T15:35:24.777Z,94.84
2022-10-25T15:37:29.838Z,94.60
2022-10-25T15:39:33.110Z,93.94
2022-10-25T15:41:35.765Z,93.94
2022-10-25T15:43:38.374Z,94.40
2022-10-25T15:45:41.410Z,94.27
2022-10-25T15:47:47.555Z,94.58
2022-10-25T15:49:53.581Z,94.74
2022-10-25T15:51:56.301Z,95.21
2022-10-25T15:53:59.008Z,95.13
2022-10-25T15:56:02.874Z,94.95
2022-10-25T15:58:09.689Z,95.99
2022-10-25T16:00:15.420Z,95.71
2022-10-25T16:02:26.390Z,95.57
2022-10-25T16:04:29.248Z,95.38
2022-10-25T16:06:31.832Z,95.19
2022-10-25T16:10:42.428Z,95.12
2022-10-25T16:12:48.965Z,94.56
2022-10-25T16:14:53.140Z,94.87
2022-10-25T16:16:58.448Z,95.38
2022-10-25T16:19:03.572Z,94.83
2022-10-25T16:21:06.369Z,95.64
2022-10-25T16:23:08.967Z,95.29
2022-10-25T16:25:12.627Z,96.36
2022-10-25T16:27:15.350Z,96.31
2022-10-25T16:29:24.476Z,96.82
2022-10-25T16:31:27.221Z,96.45
2022-10-25T16:33:29.929Z,96.59
2022-10-25T16:35:32.453Z,96.21
2022-10-25T16:37:35.077Z,96.35
2022-10-25T16:39:37.589Z,96.78
2022-10-25T16:41:43.347Z,97.23
2022-10-25T16:43:49.119Z,96.69
2022-10-25T16:45:51.842Z,96.96
2022-10-25T16:47:58.038Z,97.21
2022-10-25T16:50:00.662Z,97.16
2022-10-25T16:52:05.636Z,97.81
2022-10-25T16:54:08.769Z,97.65
2022-10-25T16:56:11.870Z,96.98
2022-10-25T16:58:14.990Z,96.57
2022-10-25T17:00:17.850Z,94.03
2022-10-25T17:02:22.774Z,93.81
2022-10-25T17:04:26.890Z,93.92
2022-10-25T17:06:40.664Z,95.34
2022-10-25T17:08:45.007Z,97.72
2022-10-25T17:10:47.700Z,98.84
2022-10-25T17:13:01.706Z,99.91
2022-10-25T17:15:04.642Z,100.00
2022-10-25T17:17:07.303Z,100.00
2022-10-25T17:19:11.205Z,100.00
2022-10-25T17:21:16.310Z,100.00
2022-10-25T17:23:19.359Z,100.00
2022-10-25T17:25:21.978Z,100.00
2022-10-25T17:27:24.577Z,100.00
2022-10-25T17:29:27.222Z,100.00
2022-10-25T17:31:30.115Z,100.00
2022-10-25T17:33:32.783Z,100.00
2022-10-25T17:35:35.338Z,100.00
2022-10-25T17:37:42.831Z,100.00
2022-10-25T17:39:45.393Z,100.00
2022-10-25T17:41:47.995Z,100.00
2022-10-25T17:43:53.228Z,100.00
2022-10-25T17:46:04.330Z,100.00
2022-10-25T17:48:07.304Z,99.86
2022-10-25T17:50:10.970Z,98.87
2022-10-25T17:52:13.467Z,98.92
2022-10-25T17:54:18.016Z,98.57
2022-10-25T17:56:22.182Z,97.72
2022-10-25T17:58:25.393Z,97.99
2022-10-25T18:00:28.052Z,98.39
2022-10-25T18:02:30.759Z,98.24
2022-10-25T18:04:52.964Z,98.30
2022-10-25T18:06:56.051Z,98.55
2022-10-25T18:09:00.217Z,98.75
2022-10-25T18:11:29.000Z,99.12
2022-10-25T18:13:31.556Z,99.34
2022-10-25T18:15:35.874Z,99.93
2022-10-25T18:17:39.774Z,99.77
2022-10-25T18:19:42.430Z,100.00
2022-10-25T18:21:45.064Z,99.61
2022-10-25T18:23:47.600Z,100.00
2022-10-25T18:25:52.090Z,100.00
2022-10-25T18:27:54.716Z,100.00
2022-10-25T18:29:57.241Z,100.00
2022-10-25T18:31:59.921Z,100.00
2022-10-25T18:34:04.087Z,100.00
2022-10-25T18:36:19.458Z,100.00
2022-10-25T18:38:22.725Z,100.00
2022-10-25T18:40:25.485Z,100.00
2022-10-25T18:42:28.268Z,100.00
2022-10-25T18:44:31.153Z,100.00
2022-10-25T18:46:34.077Z,100.00
2022-10-25T18:48:37.100Z,100.00
2022-10-25T18:50:41.867Z,100.00
2022-10-25T18:52:45.284Z,100.00
2022-10-25T18:54:47.836Z,100.00
2022-10-25T18:56:50.433Z,100.00
2022-10-25T18:58:55.219Z,100.00
2022-10-25T19:01:05.283Z,99.05
2022-10-25T19:03:08.084Z,96.86
2022-10-25T19:05:10.995Z,95.25
2022-10-25T19:07:13.582Z,93.15
2022-10-25T19:09:16.181Z,92.00
2022-10-25T19:11:19.139Z,91.67
2022-10-25T19:13:22.376Z,92.17
2022-10-25T19:15:24.985Z,93.47
2022-10-25T19:17:27.630Z,93.39
2022-10-25T19:19:30.719Z,94.50
2022-10-25T19:21:34.298Z,95.54
2022-10-25T19:23:39.356Z,96.09
2022-10-25T19:25:42.281Z,96.08
2022-10-25T19:27:45.180Z,95.77
2022-10-25T19:29:49.421Z,97.02
2022-10-25T19:31:52.244Z,97.43
2022-10-25T19:33:58.469Z,97.54
2022-10-25T19:36:09.403Z,98.63
2022-10-25T19:38:12.078Z,97.18
2022-10-25T19:40:14.906Z,96.67
2022-10-25T19:42:17.469Z,97.04
2022-10-25T19:44:20.168Z,96.82
2022-10-25T19:46:22.742Z,97.60
2022-10-25T19:48:26.262Z,96.76
2022-10-25T19:50:29.019Z,97.66
2022-10-25T19:52:34.578Z,98.13
2022-10-25T19:54:37.157Z,98.72
2022-10-25T19:56:39.666Z,99.11
2022-10-25T19:58:42.878Z,99.46
2022-10-25T20:00:45.623Z,99.44
2022-10-25T20:02:48.412Z,99.24
2022-10-25T20:04:51.012Z,98.41
2022-10-25T20:06:53.606Z,98.14
2022-10-25T20:08:57.540Z,98.89
2022-10-25T20:11:01.751Z,98.54
2022-10-25T20:13:04.871Z,98.85
2022-10-25T20:15:08.031Z,98.33
2022-10-25T20:17:12.647Z,97.44
2022-10-25T20:19:15.277Z,97.27
2022-10-25T20:21:20.381Z,97.36
2022-10-25T20:23:22.891Z,96.60
2022-10-25T20:25:27.137Z,95.94
2022-10-25T20:27:31.386Z,94.99
2022-10-25T20:29:34.551Z,95.56
2022-10-25T20:31:37.431Z,94.36
2022-10-25T20:33:40.629Z,93.81
2022-10-25T20:35:47.198Z,92.45
2022-10-25T20:37:49.975Z,91.21
2022-10-25T20:39:52.719Z,89.92
2022-10-25T20:41:55.227Z,89.66
2022-10-25T20:44:00.681Z,90.13
2022-10-25T20:46:04.245Z,89.42
2022-10-25T20:48:06.904Z,88.79
2022-10-25T20:50:09.844Z,87.68
2022-10-25T20:52:12.359Z,87.22
2022-10-25T20:54:15.386Z,86.71
2022-10-25T20:56:19.512Z,85.46
2022-10-25T20:58:23.326Z,85.47
2022-10-25T21:00:25.853Z,85.47
2022-10-25T21:02:28.694Z,84.80
2022-10-25T21:04:54.006Z,85.53
2022-10-25T21:06:53.932Z,85.80
2022-10-25T21:08:56.513Z,86.16
2022-10-25T21:11:04.704Z,85.20
2022-10-25T21:13:08.263Z,84.19
2022-10-25T21:15:12.261Z,83.70
2022-10-25T21:17:15.521Z,83.82
2022-10-25T21:19:18.370Z,82.40
2022-10-25T21:21:21.699Z,82.06
2022-10-25T21:23:24.505Z,81.21
2022-10-25T21:25:27.258Z,81.41
2022-10-25T21:27:30.072Z,81.37
2022-10-25T21:29:32.677Z,81.64
2022-10-25T21:31:35.318Z,82.22
2022-10-25T21:33:38.821Z,82.39
2022-10-25T21:35:41.383Z,82.74
2022-10-25T21:37:46.836Z,81.89
2022-10-25T21:39:51.657Z,81.95
2022-10-25T21:41:54.303Z,81.90
2022-10-25T21:43:58.341Z,82.28
2022-10-25T21:46:04.774Z,81.90
2022-10-25T21:48:07.534Z,82.20
2022-10-25T21:50:10.319Z,81.46
2022-10-25T21:52:12.862Z,80.63
2022-10-25T21:54:15.436Z,80.53
2022-10-25T21:56:20.111Z,80.80
2022-10-25T21:58:22.674Z,80.96
2022-10-25T22:00:25.209Z,80.41
2022-10-25T22:02:27.932Z,81.06
2022-10-25T22:04:30.784Z,80.82
2022-10-25T22:06:33.386Z,81.63
2022-10-25T22:08:36.089Z,81.24
2022-10-25T22:10:38.682Z,81.35
2022-10-25T22:12:41.258Z,80.30
2022-10-25T22:14:43.793Z,80.58
2022-10-25T22:16:46.474Z,80.27
2022-10-25T22:18:54.965Z,80.54
2022-10-25T22:21:03.376Z,81.00
2022-10-25T22:23:05.924Z,80.64
2022-10-25T22:25:08.727Z,80.24
2022-10-25T22:27:11.240Z,79.64
2022-10-25T22:29:15.135Z,79.39
2022-10-25T22:31:18.704Z,79.03
2022-10-25T22:33:21.355Z,79.12
2022-10-25T22:35:24.035Z,79.06
2022-10-25T22:37:26.521Z,78.63
2022-10-25T22:39:29.082Z,78.20
2022-10-25T22:41:32.159Z,78.18
2022-10-25T22:43:36.162Z,78.49
2022-10-25T22:45:38.684Z,78.71
2022-10-25T22:47:41.231Z,77.98
2022-10-25T22:49:43.831Z,77.78
2022-10-25T22:51:46.487Z,78.17
2022-10-25T22:53:49.202Z,77.93
2022-10-25T22:55:59.762Z,78.34
2022-10-25T22:58:02.242Z,78.79
2022-10-25T23:00:05.373Z,77.81
2022-10-25T23:02:07.996Z,78.19
2022-10-25T23:04:10.898Z,79.10
2022-10-25T23:06:15.800Z,77.83
2022-10-25T23:08:18.285Z,79.07
2022-10-25T23:10:20.806Z,79.22
2022-10-25T23:12:23.397Z,78.45
2022-10-25T23:14:25.933Z,79.01
2022-10-25T23:16:29.477Z,79.03
2022-10-25T23:18:32.738Z,79.84
2022-10-25T23:20:35.247Z,79.96
2022-10-25T23:22:37.816Z,79.53
2022-10-25T23:24:40.421Z,79.83
2022-10-25T23:26:43.210Z,80.03
2022-10-25T23:28:46.044Z,80.38
2022-10-25T23:30:48.605Z,79.92
2022-10-25T23:32:52.242Z,79.45
2022-10-25T23:34:57.024Z,79.74
2022-10-25T23:36:59.787Z,80.51
2022-10-25T23:39:02.346Z,81.11
2022-10-25T23:41:05.926Z,80.96
2022-10-25T23:43:08.896Z,81.73
2022-10-25T23:45:11.788Z,81.78
2022-10-25T23:47:14.293Z,81.50
2022-10-25T23:49:16.854Z,81.04
2022-10-25T23:51:19.449Z,81.32
2022-10-25T23:53:22.171Z,81.32
2022-10-25T23:55:24.698Z,81.33
2022-10-25T23:57:27.675Z,81.91
2022-10-25T23:59:30.222Z,81.63
